Time;durP1;ratioP1;P1;durP2;ratioP2;P2;SDS_P1;SDS_P2;PMS_P1;PMS_P2;Temp;Humidity;BMP_temperature;BMP_pressure;BME280_temperature;BME280_humidity;BME280_pressure;Samples;Min_cycle;Max_cycle;Signal;HPM_P1;HPM_P2
2021/06/16 00:00:14;;;;;;;15.98;12.40;;;;;;;18.02;72.58;100591.11;1701408;82;30986;-89
2021/06/16 00:02:42;;;;;;;16.62;12.60;;;;;;;18.00;72.64;100595.78;1701299;82;25429;-88
2021/06/16 00:05:12;;;;;;;19.05;12.93;;;;;;;18.02;73.03;100591.11;1701283;82;25190;-89
2021/06/16 00:07:38;;;;;;;17.02;13.08;;;;;;;18.03;73.50;100587.42;1701679;82;25495;-90
2021/06/16 00:10:05;;;;;;;19.02;12.53;;;;;;;18.03;73.78;100592.20;1701344;82;25201;-89
2021/06/16 00:12:32;;;;;;;18.85;12.73;;;;;;;18.03;73.92;100585.59;1701293;82;25141;-88
2021/06/16 00:14:58;;;;;;;16.23;11.25;;;;;;;18.06;74.17;100585.69;1701458;82;25610;-89
2021/06/16 00:17:23;;;;;;;19.52;11.88;;;;;;;18.07;74.48;100588.66;1677010;82;25168;-89
2021/06/16 00:19:49;;;;;;;19.52;12.10;;;;;;;18.11;74.68;100588.52;1665072;84;25306;-89
2021/06/16 00:22:15;;;;;;;16.27;11.70;;;;;;;18.12;74.37;100594.94;1670449;84;33095;-89
2021/06/16 00:24:40;;;;;;;18.05;11.25;;;;;;;18.11;74.73;100591.97;1701541;82;31124;-87
2021/06/16 00:27:07;;;;;;;16.20;12.25;;;;;;;18.09;74.81;100591.39;1701264;84;34894;-89
2021/06/16 00:29:33;;;;;;;14.95;10.82;;;;;;;18.11;74.85;100591.16;1701096;83;25207;-90
2021/06/16 00:31:59;;;;;;;15.00;10.82;;;;;;;18.14;75.40;100591.58;1701176;83;25374;-88
2021/06/16 00:34:25;;;;;;;13.43;10.10;;;;;;;18.14;74.96;100590.75;1701220;82;33423;-89
2021/06/16 00:36:51;;;;;;;17.60;10.68;;;;;;;18.17;75.06;100596.97;1706804;82;25383;-89
2021/06/16 00:39:17;;;;;;;16.48;10.65;;;;;;;18.16;74.92;100597.97;1701294;82;34615;-89
2021/06/16 00:41:44;;;;;;;14.63;10.25;;;;;;;18.18;74.94;100595.94;1701372;82;32317;-90
2021/06/16 00:44:10;;;;;;;16.52;11.35;;;;;;;18.16;74.80;100604.59;1701312;82;25554;-89
2021/06/16 00:46:36;;;;;;;18.48;9.70;;;;;;;18.11;75.01;100601.23;1701218;83;25194;-89
2021/06/16 00:49:04;;;;;;;14.83;10.50;;;;;;;18.09;75.12;100595.88;1701466;84;31158;-88
2021/06/16 00:51:31;;;;;;;16.15;9.65;;;;;;;18.08;74.81;100595.04;1701194;83;25139;-87
2021/06/16 00:53:56;;;;;;;17.32;11.25;;;;;;;18.06;74.93;100600.23;1700996;84;25615;-89
2021/06/16 00:56:23;;;;;;;13.43;9.78;;;;;;;17.99;74.73;100601.59;1701278;84;25370;-88
2021/06/16 00:58:49;;;;;;;14.93;9.40;;;;;;;17.97;74.63;100595.69;1701364;84;25605;-85
2021/06/16 01:01:24;;;;;;;17.92;9.28;;;;;;;17.97;74.57;100583.78;1681094;82;25681;-86
2021/06/16 01:04:04;;;;;;;17.52;9.68;;;;;;;17.96;74.64;100587.46;1701154;82;25389;-86
2021/06/16 01:06:59;;;;;;;15.70;9.13;;;;;;;17.90;74.15;100588.30;1701083;82;25590;-85
2021/06/16 01:09:36;;;;;;;15.10;8.85;;;;;;;17.87;73.99;100589.52;1701194;82;25507;-86
2021/06/16 01:12:19;;;;;;;11.63;8.10;;;;;;;17.85;73.85;100594.20;1700528;83;25710;-86
2021/06/16 01:15:06;;;;;;;11.83;8.08;;;;;;;17.74;73.65;100599.58;1700277;82;25428;-86
2021/06/16 01:17:55;;;;;;;16.73;8.85;;;;;;;17.69;73.72;100602.02;1701265;84;25517;-86
2021/06/16 01:20:40;;;;;;;15.28;8.40;;;;;;;17.66;73.74;100606.92;1701061;84;25606;-86
2021/06/16 01:23:17;;;;;;;17.57;9.13;;;;;;;17.63;73.72;100607.34;1701165;82;26486;-87
2021/06/16 01:25:54;;;;;;;16.45;9.25;;;;;;;17.56;73.82;100611.80;1700978;84;25737;-85
2021/06/16 01:28:24;;;;;;;13.28;7.12;;;;;;;17.44;74.07;100613.74;1700549;84;25443;-87
2021/06/16 01:30:50;;;;;;;12.40;7.30;;;;;;;17.33;74.32;100612.23;1670934;83;26398;-85
2021/06/16 01:33:18;;;;;;;13.18;7.50;;;;;;;17.27;74.43;100612.02;1665213;84;25110;-85
2021/06/16 01:35:47;;;;;;;13.05;7.65;;;;;;;17.24;74.04;100615.07;1665183;85;26331;-86
2021/06/16 01:38:16;;;;;;;12.65;8.28;;;;;;;17.20;73.93;100615.16;1664967;84;25646;-87
2021/06/16 01:40:45;;;;;;;15.30;8.33;;;;;;;17.20;73.82;100613.03;1665084;86;25416;-87
2021/06/16 01:43:11;;;;;;;11.83;7.00;;;;;;;17.21;73.67;100606.72;1665317;85;25670;-87
2021/06/16 01:45:38;;;;;;;12.98;7.33;;;;;;;17.24;73.57;100600.55;1696817;82;32426;-86
2021/06/16 01:48:08;;;;;;;10.30;6.67;;;;;;;17.26;73.25;100601.64;1701255;82;25516;-87
2021/06/16 01:50:36;;;;;;;13.45;6.70;;;;;;;17.30;73.13;100596.27;1701361;82;25640;-87
2021/06/16 01:53:03;;;;;;;12.95;6.42;;;;;;;17.28;72.79;100603.06;1701028;82;25177;-87
2021/06/16 01:55:30;;;;;;;10.05;6.08;;;;;;;17.25;72.66;100606.63;1701271;83;25686;-91
2021/06/16 01:57:58;;;;;;;13.08;6.67;;;;;;;17.20;72.50;100612.52;1701320;82;25184;-90
2021/06/16 02:00:24;;;;;;;9.63;5.97;;;;;;;17.16;72.53;100622.35;1700570;82;25503;-90
2021/06/16 02:02:51;;;;;;;13.20;6.40;;;;;;;17.09;72.45;100626.32;1701264;82;25125;-90
2021/06/16 02:05:19;;;;;;;15.98;6.87;;;;;;;17.02;72.58;100633.41;1701252;83;25401;-86
2021/06/16 02:08:04;;;;;;;11.55;6.90;;;;;;;16.94;72.41;100645.00;1701384;82;25405;-86
2021/06/16 02:10:37;;;;;;;12.88;8.30;;;;;;;16.90;73.04;100639.80;1701354;82;25681;-89
2021/06/16 02:13:07;;;;;;;14.00;8.13;;;;;;;16.85;73.68;100655.41;1700350;82;25743;-86
2021/06/16 02:15:38;;;;;;;10.83;7.83;;;;;;;16.82;73.99;100653.17;1701443;84;25175;-85
2021/06/16 02:18:06;;;;;;;16.25;8.40;;;;;;;16.88;74.34;100649.73;1701105;84;25188;-85
2021/06/16 02:20:34;;;;;;;12.43;9.03;;;;;;;16.89;74.87;100652.70;1700530;84;25354;-86
2021/06/16 02:23:00;;;;;;;12.47;8.40;;;;;;;16.81;75.08;100662.12;1701259;83;32271;-87
2021/06/16 02:25:26;;;;;;;12.00;8.33;;;;;;;16.75;75.46;100661.54;1682987;84;25523;-88
2021/06/16 02:27:52;;;;;;;16.80;8.75;;;;;;;16.70;75.57;100666.11;1701063;83;33099;-88
2021/06/16 02:30:18;;;;;;;14.45;8.80;;;;;;;16.68;75.53;100665.48;1701005;84;31033;-87
2021/06/16 02:32:44;;;;;;;13.30;8.35;;;;;;;16.64;75.82;100658.48;1701274;84;25576;-89
2021/06/16 02:35:11;;;;;;;12.58;8.63;;;;;;;16.59;75.82;100660.08;1701399;84;25237;-89
2021/06/16 02:37:42;;;;;;;12.33;8.70;;;;;;;16.58;76.25;100655.28;1701367;84;25467;-88
2021/06/16 02:40:13;;;;;;;13.78;7.85;;;;;;;16.53;75.98;100661.69;1701350;83;25242;-89
2021/06/16 02:42:46;;;;;;;13.50;7.72;;;;;;;16.45;75.65;100673.73;1701177;83;25544;-89
2021/06/16 02:45:14;;;;;;;10.65;6.25;;;;;;;16.45;75.64;100678.16;1700360;84;25178;-88
2021/06/16 02:47:44;;;;;;;9.15;5.65;;;;;;;16.42;74.79;100679.37;1701279;82;25150;-85
2021/06/16 02:50:12;;;;;;;10.85;5.05;;;;;;;16.38;74.24;100675.51;1701372;82;25555;-85
2021/06/16 02:52:43;;;;;;;9.05;4.08;;;;;;;16.38;73.77;100678.14;1701316;83;25358;-84
2021/06/16 02:55:12;;;;;;;8.45;3.70;;;;;;;16.35;72.71;100678.54;1701291;82;25541;-84
2021/06/16 02:57:41;;;;;;;6.35;3.33;;;;;;;16.36;71.96;100684.11;1700932;82;25734;-85
2021/06/16 03:00:11;;;;;;;5.78;3.00;;;;;;;16.39;71.23;100686.36;1682805;84;25675;-85
2021/06/16 03:02:41;;;;;;;7.08;3.25;;;;;;;16.37;70.23;100686.57;1705042;82;31836;-85
2021/06/16 03:05:09;;;;;;;7.00;3.35;;;;;;;16.37;70.23;100685.77;1730376;82;25389;-85
2021/06/16 03:07:36;;;;;;;7.12;3.30;;;;;;;16.40;69.96;100678.77;1730445;82;25665;-83
2021/06/16 03:10:05;;;;;;;7.22;3.37;;;;;;;16.43;69.83;100686.30;1730507;82;25187;-85
2021/06/16 03:12:32;;;;;;;7.20;3.50;;;;;;;16.43;69.50;100692.89;1730279;82;25652;-86
2021/06/16 03:15:00;;;;;;;6.15;3.55;;;;;;;16.39;69.33;100694.27;1655443;85;25586;-85
2021/06/16 03:17:27;;;;;;;7.00;3.30;;;;;;;16.34;69.37;100696.67;1692053;84;25190;-84
2021/06/16 03:19:57;;;;;;;9.48;3.52;;;;;;;16.32;69.21;100697.40;1701210;82;25115;-84
2021/06/16 03:22:23;;;;;;;;;;;;;;;16.31;69.22;100694.43;1703890;84;25182;-87
2021/06/16 03:24:51;;;;;;;8.13;3.72;;;;;;;16.28;68.96;100694.83;1701377;84;25174;-88
2021/06/16 03:27:22;;;;;;;7.35;3.72;;;;;;;16.27;68.94;100696.65;1682846;84;25776;-88
2021/06/16 03:29:52;;;;;;;8.00;3.40;;;;;;;16.32;68.97;100702.67;1672942;85;25756;-87
2021/06/16 03:32:19;;;;;;;;;;;;;;;16.38;69.04;100709.30;1675620;85;25208;-85
2021/06/16 03:34:45;;;;;;;6.35;3.22;;;;;;;16.45;68.94;100701.43;1672967;85;25145;-84
2021/06/16 03:37:12;;;;;;;6.78;3.22;;;;;;;16.51;68.67;100709.07;1673024;85;32958;-84
2021/06/16 03:39:39;;;;;;;6.62;2.60;;;;;;;16.53;68.67;100708.34;1673035;85;25499;-85
2021/06/16 03:42:07;;;;;;;7.22;2.92;;;;;;;16.55;68.36;100712.42;1656031;84;25518;-86
2021/06/16 03:44:35;;;;;;;7.25;2.62;;;;;;;16.53;68.35;100714.47;1701470;82;25592;-86
2021/06/16 03:47:04;;;;;;;9.88;3.10;;;;;;;16.55;68.30;100711.61;1701197;83;25405;-85
2021/06/16 03:49:32;;;;;;;4.80;2.70;;;;;;;16.60;68.17;100710.53;1701617;83;25680;-86
2021/06/16 03:51:58;;;;;;;4.78;2.52;;;;;;;16.57;68.00;100717.01;1683238;84;25491;-86
2021/06/16 03:54:28;;;;;;;7.62;2.87;;;;;;;16.59;67.78;100724.74;1701135;83;25126;-86
2021/06/16 03:56:55;;;;;;;8.88;2.65;;;;;;;16.53;67.77;100728.98;1701181;82;25309;-86
2021/06/16 03:59:21;;;;;;;9.45;2.62;;;;;;;16.52;67.43;100736.56;1701193;83;25684;-85
2021/06/16 04:01:47;;;;;;;7.10;3.05;;;;;;;16.44;67.41;100731.45;1682904;84;25390;-85
2021/06/16 04:04:14;;;;;;;4.78;2.62;;;;;;;16.42;67.52;100741.38;1701287;84;25593;-85
2021/06/16 04:06:45;;;;;;;6.25;2.40;;;;;;;16.42;67.46;100738.25;1701087;84;25195;-86
2021/06/16 04:09:13;;;;;;;9.33;2.83;;;;;;;16.43;67.33;100740.38;1701254;83;25609;-87
2021/06/16 04:11:42;;;;;;;6.55;2.70;;;;;;;16.42;67.44;100735.61;1701037;83;25446;-86
2021/06/16 04:14:08;;;;;;;4.97;2.75;;;;;;;16.46;67.62;100739.19;1701363;83;25153;-87
2021/06/16 04:16:34;;;;;;;6.20;2.40;;;;;;;16.49;67.71;100740.11;1700509;84;25590;-85
2021/06/16 04:19:00;;;;;;;6.10;2.58;;;;;;;16.57;67.61;100743.40;1699771;84;25654;-89
2021/06/16 04:21:26;;;;;;;4.17;2.60;;;;;;;16.60;67.27;100745.64;1700331;84;31260;-86
2021/06/16 04:23:53;;;;;;;7.17;2.45;;;;;;;16.59;67.20;100746.66;1682976;84;25396;-87
2021/06/16 04:26:21;;;;;;;4.55;2.30;;;;;;;16.59;67.29;100742.70;1701296;83;25175;-84
2021/06/16 04:28:47;;;;;;;6.80;2.52;;;;;;;16.64;67.26;100742.94;1672966;85;25578;-87
2021/06/16 04:31:13;;;;;;;6.80;2.40;;;;;;;16.67;67.34;100748.81;1673276;84;25490;-87
2021/06/16 04:33:40;;;;;;;10.40;2.80;;;;;;;16.71;67.36;100739.51;1673083;85;25167;-87
2021/06/16 04:36:07;;;;;;;10.68;2.55;;;;;;;16.74;67.24;100750.48;1672933;85;25389;-88
2021/06/16 04:38:34;;;;;;;11.03;3.02;;;;;;;16.75;67.18;100746.85;1673058;85;25208;-87
2021/06/16 04:41:00;;;;;;;5.33;2.30;;;;;;;16.75;67.03;100746.85;1672996;85;25637;-86
2021/06/16 04:43:26;;;;;;;6.30;2.30;;;;;;;16.75;67.15;100744.69;1672577;85;25442;-83
2021/06/16 04:45:53;;;;;;;11.48;2.98;;;;;;;16.77;67.18;100743.52;1672914;85;25621;-84
2021/06/16 04:48:19;;;;;;;9.78;3.35;;;;;;;16.82;67.10;100745.06;1682412;83;25712;-84
2021/06/16 04:50:45;;;;;;;6.17;3.33;;;;;;;16.84;66.93;100740.92;1701415;84;32136;-84
2021/06/16 04:53:11;;;;;;;8.50;2.67;;;;;;;16.79;66.87;100732.27;1701353;84;25562;-83
2021/06/16 04:55:37;;;;;;;6.97;2.72;;;;;;;16.86;67.08;100737.08;1701252;84;32897;-84
2021/06/16 04:58:04;;;;;;;6.65;2.67;;;;;;;16.92;66.99;100734.67;1701315;83;30966;-85
2021/06/16 05:00:30;;;;;;;7.85;2.58;;;;;;;16.96;67.00;100738.52;1701048;84;25155;-86
2021/06/16 05:02:59;;;;;;;6.37;2.75;;;;;;;17.09;67.15;100744.66;1668231;84;32445;-86
2021/06/16 05:05:27;;;;;;;8.43;2.47;;;;;;;17.04;67.04;100715.39;1665153;85;25680;-84
2021/06/16 05:07:53;;;;;;;8.10;2.62;;;;;;;17.31;66.80;100749.30;1665053;86;25178;-85
2021/06/16 05:10:19;;;;;;;5.95;2.35;;;;;;;17.41;66.60;100754.21;1647523;86;30962;-86
2021/06/16 05:12:45;;;;;;;5.47;2.47;;;;;;;17.46;66.11;100754.43;1665094;86;25178;-86
2021/06/16 05:15:13;;;;;;;7.37;2.30;;;;;;;17.44;66.26;100756.45;1665021;86;25162;-85
2021/06/16 05:17:40;;;;;;;6.83;2.67;;;;;;;17.45;65.91;100762.55;1697679;82;26305;-86
2021/06/16 05:20:11;;;;;;;7.35;2.55;;;;;;;17.44;65.63;100763.06;1699759;83;25169;-86
2021/06/16 05:22:38;;;;;;;6.15;2.62;;;;;;;17.41;65.62;100754.72;1700242;84;25702;-84
2021/06/16 05:25:08;;;;;;;6.97;2.55;;;;;;;17.44;65.71;100750.36;1701260;84;25630;-85
2021/06/16 05:27:35;;;;;;;8.20;2.67;;;;;;;17.50;65.83;100749.03;1701632;84;25181;-86
2021/06/16 05:30:04;;;;;;;7.58;2.70;;;;;;;17.59;65.69;100748.84;1701636;84;25536;-87
2021/06/16 05:32:30;;;;;;;10.35;2.67;;;;;;;17.64;65.53;100751.70;1700845;82;25418;-85
2021/06/16 05:34:56;;;;;;;8.63;2.80;;;;;;;17.59;64.88;100757.58;1701172;82;31229;-85
2021/06/16 05:37:23;;;;;;;9.23;2.72;;;;;;;17.60;65.15;100759.23;1701505;82;25174;-85
2021/06/16 05:39:49;;;;;;;8.10;2.52;;;;;;;17.70;65.27;100765.42;1702383;82;25185;-83
2021/06/16 05:42:15;;;;;;;10.43;2.27;;;;;;;17.69;64.69;100769.91;1704092;82;25456;-85
2021/06/16 05:44:41;;;;;;;12.43;3.10;;;;;;;17.71;64.61;100768.39;1703004;82;32935;-86
2021/06/16 05:47:07;;;;;;;7.12;2.10;;;;;;;17.70;64.69;100771.52;1701464;82;31002;-86
2021/06/16 05:49:32;;;;;;;11.10;2.47;;;;;;;17.73;64.65;100773.79;1701554;82;34505;-88
2021/06/16 05:51:58;;;;;;;8.45;2.83;;;;;;;17.79;64.48;100766.91;1701589;83;32083;-87
2021/06/16 05:54:24;;;;;;;7.30;2.60;;;;;;;17.82;64.11;100770.47;1701433;82;25334;-87
2021/06/16 05:56:50;;;;;;;8.50;2.40;;;;;;;17.88;64.35;100761.72;1701450;84;32865;-87
2021/06/16 05:59:16;;;;;;;13.58;2.62;;;;;;;17.92;64.50;100750.21;1701458;82;25097;-87
2021/06/16 06:01:42;;;;;;;8.00;2.75;;;;;;;18.07;63.99;100766.70;1676353;83;25371;-87
2021/06/16 06:04:08;;;;;;;6.12;2.17;;;;;;;18.06;63.45;100762.92;1664887;85;32360;-88
2021/06/16 06:06:35;;;;;;;7.10;2.05;;;;;;;18.07;63.28;100765.38;1665172;86;25446;-85
2021/06/16 06:09:04;;;;;;;8.33;2.80;;;;;;;18.09;63.65;100764.67;1664943;86;25153;-85
2021/06/16 06:11:29;;;;;;;9.10;2.70;;;;;;;18.34;64.88;100770.66;1664352;85;25670;-85
2021/06/16 06:13:55;;;;;;;10.40;2.67;;;;;;;18.50;63.17;100770.73;1665141;85;34546;-85
2021/06/16 06:16:21;;;;;;;12.70;2.77;;;;;;;18.44;63.39;100778.16;1693870;84;32207;-87
2021/06/16 06:18:47;;;;;;;6.10;2.37;;;;;;;18.59;64.25;100777.42;1706096;82;25607;-85
2021/06/16 06:21:13;;;;;;;11.20;2.90;;;;;;;18.77;64.05;100773.64;1692637;84;32942;-86
2021/06/16 06:23:39;;;;;;;6.97;2.10;;;;;;;18.91;63.72;100771.75;1698663;84;25604;-85
2021/06/16 06:26:04;;;;;;;8.70;2.20;;;;;;;19.02;62.47;100775.58;1701481;84;34538;-86
2021/06/16 06:28:30;;;;;;;10.10;2.08;;;;;;;19.07;62.61;100773.13;1701586;84;25602;-86
2021/06/16 06:30:56;;;;;;;11.57;2.60;;;;;;;19.13;62.69;100771.46;1701299;82;25273;-88
2021/06/16 06:33:24;;;;;;;8.83;2.33;;;;;;;19.21;62.21;100776.52;1701316;82;33119;-88
2021/06/16 06:35:49;;;;;;;9.43;2.70;;;;;;;19.20;62.04;100779.66;1701473;83;25348;-86
2021/06/16 06:38:15;;;;;;;11.68;2.70;;;;;;;19.24;62.20;100786.17;1701518;82;34863;-88
2021/06/16 06:40:42;;;;;;;6.28;2.45;;;;;;;19.23;60.70;100787.70;1701697;82;25134;-85
2021/06/16 06:43:08;;;;;;;7.95;2.92;;;;;;;19.11;61.54;100781.45;1701365;82;25559;-85
2021/06/16 06:45:34;;;;;;;7.40;3.00;;;;;;;19.06;60.99;100782.87;1703200;82;33341;-87
2021/06/16 06:48:00;;;;;;;7.17;2.52;;;;;;;19.09;61.12;100785.63;1701523;82;31162;-86
2021/06/16 06:50:27;;;;;;;18.07;3.02;;;;;;;19.09;61.11;100788.27;1701331;82;25701;-85
2021/06/16 06:52:52;;;;;;;9.00;2.62;;;;;;;19.11;61.27;100784.91;1702773;82;25408;-85
2021/06/16 06:55:19;;;;;;;12.45;2.60;;;;;;;19.18;61.12;100790.16;1701547;84;25603;-85
2021/06/16 06:57:45;;;;;;;10.75;2.70;;;;;;;19.38;61.95;100786.91;1701238;84;25226;-85
2021/06/16 07:00:13;;;;;;;6.12;2.42;;;;;;;19.46;59.98;100786.66;1701433;82;31037;-88
2021/06/16 07:02:42;;;;;;;6.70;2.17;;;;;;;19.50;60.67;100787.05;1701760;82;25145;-88
2021/06/16 07:05:09;;;;;;;10.00;2.80;;;;;;;19.53;60.33;100783.96;1701286;83;25198;-89
2021/06/16 07:07:34;;;;;;;8.28;2.40;;;;;;;19.56;60.12;100782.72;1701577;82;25659;-88
2021/06/16 07:10:00;;;;;;;9.93;2.72;;;;;;;19.66;60.23;100783.91;1701460;82;33201;-89
2021/06/16 07:12:26;;;;;;;8.05;1.92;;;;;;;19.73;59.73;100785.20;1701239;82;31467;-85
2021/06/16 07:14:53;;;;;;;11.50;2.75;;;;;;;19.70;59.34;100782.98;1680376;84;25362;-85
2021/06/16 07:17:20;;;;;;;9.30;2.10;;;;;;;19.69;59.42;100780.02;1688449;84;25443;-86
2021/06/16 07:19:46;;;;;;;14.83;2.70;;;;;;;19.83;60.05;100783.38;1701326;83;25517;-87
2021/06/16 07:22:11;;;;;;;19.27;2.83;;;;;;;19.98;59.66;100785.22;1701252;84;33348;-86
2021/06/16 07:24:37;;;;;;;10.38;3.05;;;;;;;20.09;59.69;100788.48;1701466;83;31003;-87
2021/06/16 07:27:04;;;;;;;8.40;2.37;;;;;;;20.23;59.53;100779.89;1710723;82;25175;-86
2021/06/16 07:29:29;;;;;;;5.80;2.08;;;;;;;20.25;58.25;100777.03;1716232;82;25137;-87
2021/06/16 07:31:55;;;;;;;9.58;2.22;;;;;;;20.07;55.93;100779.12;1701299;82;25288;-87
2021/06/16 07:34:21;;;;;;;9.10;2.02;;;;;;;19.97;57.51;100778.30;1701322;83;32896;-86
2021/06/16 07:36:47;;;;;;;10.15;2.30;;;;;;;20.09;57.91;100781.85;1699314;82;31156;-86
2021/06/16 07:39:13;;;;;;;11.10;2.42;;;;;;;20.27;57.98;100780.25;1691017;84;25155;-86
2021/06/16 07:41:38;;;;;;;6.87;2.50;;;;;;;20.44;57.17;100781.33;1691284;84;25127;-86
2021/06/16 07:44:04;;;;;;;6.42;2.65;;;;;;;20.38;55.98;100778.23;1692021;82;26333;-88
2021/06/16 07:46:30;;;;;;;5.95;2.02;;;;;;;20.33;57.25;100780.21;1685775;82;33097;-86
2021/06/16 07:48:56;;;;;;;12.35;2.12;;;;;;;20.36;57.09;100782.95;1692163;84;31074;-86
2021/06/16 07:51:22;;;;;;;13.25;2.87;;;;;;;20.36;57.91;100784.27;1695840;82;25437;-87
2021/06/16 07:53:48;;;;;;;7.00;2.00;;;;;;;20.38;57.34;100780.38;1692718;84;25230;-86
2021/06/16 07:56:15;;;;;;;8.88;2.40;;;;;;;20.33;57.03;100784.20;1687630;84;25721;-86
2021/06/16 07:58:40;;;;;;;10.82;3.90;;;;;;;20.31;56.90;100782.79;1665786;85;25444;-86
2021/06/16 08:01:06;;;;;;;17.40;3.05;;;;;;;20.37;57.84;100776.07;1700436;84;31049;-86
2021/06/16 08:03:32;;;;;;;12.03;3.52;;;;;;;20.61;57.86;100781.59;1698781;84;25221;-87
2021/06/16 08:05:58;;;;;;;6.60;3.37;;;;;;;20.74;56.89;100790.75;1689572;84;25736;-86
2021/06/16 08:08:24;;;;;;;5.75;2.42;;;;;;;20.67;55.74;100787.34;1690872;82;25308;-86
2021/06/16 08:10:50;;;;;;;9.40;2.92;;;;;;;20.60;55.56;100790.61;1692428;82;33169;-86
2021/06/16 08:13:18;;;;;;;7.75;2.65;;;;;;;20.54;55.80;100784.33;1692417;82;25157;-86
2021/06/16 08:15:44;;;;;;;7.70;2.45;;;;;;;20.52;55.74;100782.89;1700778;84;25142;-86
2021/06/16 08:18:10;;;;;;;13.15;2.62;;;;;;;20.54;56.23;100784.83;1694251;84;25218;-84
2021/06/16 08:20:36;;;;;;;7.83;2.60;;;;;;;20.66;56.56;100789.72;1692541;84;25528;-87
2021/06/16 08:23:03;;;;;;;14.40;3.25;;;;;;;20.77;56.10;100793.48;1699317;84;32882;-80
2021/06/16 08:25:29;;;;;;;11.97;2.95;;;;;;;20.84;56.59;100795.53;1684463;84;25638;-86
2021/06/16 08:27:54;;;;;;;7.37;2.40;;;;;;;21.04;56.81;100793.45;1689395;84;25392;-87
2021/06/16 08:30:21;;;;;;;11.48;2.15;;;;;;;21.21;55.77;100796.31;1691496;84;25153;-86
2021/06/16 08:32:47;;;;;;;7.87;2.15;;;;;;;21.26;55.58;100804.95;1687588;84;25719;-87
2021/06/16 08:35:14;;;;;;;10.08;2.40;;;;;;;21.17;54.55;100809.77;1681996;84;33430;-85
2021/06/16 08:37:41;;;;;;;6.30;2.20;;;;;;;21.08;53.98;100803.12;1680167;83;25641;-86
2021/06/16 08:40:09;;;;;;;6.97;2.17;;;;;;;21.04;54.09;100805.42;1686664;84;25204;-85
2021/06/16 08:42:35;;;;;;;12.20;2.47;;;;;;;21.12;54.70;100800.32;1694561;84;25110;-86
2021/06/16 08:45:03;;;;;;;8.05;2.00;;;;;;;21.25;54.76;100804.64;1685827;84;25561;-85
2021/06/16 08:47:30;;;;;;;5.37;1.90;;;;;;;21.32;54.45;100807.23;1697935;84;25174;-86
2021/06/16 08:49:56;;;;;;;7.45;1.85;;;;;;;21.37;53.60;100808.70;1696220;84;25618;-86
2021/06/16 08:52:22;;;;;;;11.45;2.37;;;;;;;21.39;53.43;100815.45;1702195;84;25163;-86
2021/06/16 08:54:48;;;;;;;5.15;1.62;;;;;;;21.48;53.40;100814.08;1685568;84;25620;-86
2021/06/16 08:57:14;;;;;;;6.72;2.30;;;;;;;21.53;51.66;100809.42;1681350;84;25520;-87
2021/06/16 08:59:40;;;;;;;12.45;1.90;;;;;;;21.49;51.76;100814.36;1697980;82;32887;-86
2021/06/16 09:02:06;;;;;;;8.43;1.75;;;;;;;21.62;51.87;100815.23;1677637;84;25401;-85
2021/06/16 09:04:51;;;;;;;7.35;1.80;;;;;;;21.66;50.59;100821.20;1699924;83;25660;-86
2021/06/16 09:07:24;;;;;;;4.78;2.20;;;;;;;21.58;49.67;100818.88;1694385;82;25173;-87
2021/06/16 09:10:14;;;;;;;9.53;1.80;;;;;;;21.59;50.21;100814.36;1691716;84;25608;-86
2021/06/16 09:12:58;;;;;;;9.58;1.75;;;;;;;21.68;49.92;100817.78;1694246;84;25577;-87
2021/06/16 09:15:30;;;;;;;7.47;2.65;;;;;;;21.67;49.80;100826.00;1691891;83;25605;-87
2021/06/16 09:18:12;;;;;;;9.55;2.67;;;;;;;21.69;49.69;100822.61;1715241;82;25146;-86
2021/06/16 09:20:44;;;;;;;8.65;2.40;;;;;;;21.75;49.18;100812.38;1678861;84;25173;-86
2021/06/16 09:23:16;;;;;;;8.23;2.20;;;;;;;21.75;49.16;100818.22;1690838;82;25553;-88
2021/06/16 09:25:44;;;;;;;9.00;2.40;;;;;;;21.81;48.57;100817.30;1686558;84;25454;-86
2021/06/16 09:28:11;;;;;;;4.15;1.72;;;;;;;21.85;48.97;100822.45;1677837;84;25680;-85
2021/06/16 09:30:43;;;;;;;5.90;2.37;;;;;;;21.88;48.95;100821.98;1680582;84;25144;-86
2021/06/16 09:33:14;;;;;;;11.90;3.10;;;;;;;21.96;49.66;100821.66;1690298;84;25180;-87
2021/06/16 09:35:45;;;;;;;5.92;2.37;;;;;;;22.10;50.30;100821.75;1692631;82;25797;-87
2021/06/16 09:38:30;;;;;;;5.10;2.37;;;;;;;22.19;49.65;100823.58;1691213;84;25201;-86
2021/06/16 09:40:57;;;;;;;5.95;2.80;;;;;;;22.32;50.20;100824.69;1683369;84;25159;-88
2021/06/16 09:43:26;;;;;;;9.45;2.50;;;;;;;22.40;49.29;100823.55;1694494;82;25597;-88
2021/06/16 09:46:01;;;;;;;8.37;2.77;;;;;;;22.43;49.82;100820.94;1703093;83;25170;-87
2021/06/16 09:48:37;;;;;;;7.33;2.40;;;;;;;22.45;49.80;100806.31;1686519;83;25528;-81
2021/06/16 09:51:24;;;;;;;9.38;3.55;;;;;;;22.63;49.64;100824.03;1706587;82;25160;-88
2021/06/16 09:54:21;;;;;;;5.78;2.40;;;;;;;22.75;50.14;100814.68;1688246;83;25164;-88
2021/06/16 09:57:00;;;;;;;9.60;2.87;;;;;;;22.97;49.72;100818.40;1684502;84;25402;-87
2021/06/16 09:59:43;;;;;;;8.33;2.77;;;;;;;23.07;49.23;100812.44;1694693;84;25182;-87
2021/06/16 10:02:23;;;;;;;6.47;2.80;;;;;;;23.11;49.57;100816.77;1683633;84;25532;-88
2021/06/16 10:04:56;;;;;;;10.25;3.15;;;;;;;23.16;49.08;100816.37;1690780;84;25377;-87
2021/06/16 10:07:26;;;;;;;7.35;2.62;;;;;;;23.15;48.88;100813.40;1695852;82;25848;-88
2021/06/16 10:10:02;;;;;;;9.93;3.37;;;;;;;23.16;48.89;100810.20;1688082;84;25189;-86
2021/06/16 10:12:38;;;;;;;8.85;2.83;;;;;;;23.16;48.70;100811.03;1688903;84;25180;-88
2021/06/16 10:15:08;;;;;;;12.18;3.50;;;;;;;23.25;49.32;100810.93;1694748;84;25677;-88
2021/06/16 10:17:34;;;;;;;13.30;3.83;;;;;;;23.41;49.83;100808.03;1695310;82;25686;-88
2021/06/16 10:20:03;;;;;;;5.83;3.00;;;;;;;23.67;49.88;100815.95;1693168;84;25189;-88
2021/06/16 10:22:29;;;;;;;8.38;2.92;;;;;;;23.81;49.14;100814.33;1700820;82;25695;-87
2021/06/16 10:24:55;;;;;;;8.75;2.67;;;;;;;23.82;47.95;100809.30;1692031;84;25181;-88
2021/06/16 10:27:55;;;;;;;7.65;2.87;;;;;;;23.67;48.25;100817.81;1684919;84;25416;-87
2021/06/16 10:30:25;;;;;;;9.40;2.90;;;;;;;23.64;48.23;100815.09;1699445;83;25574;-88
2021/06/16 10:32:51;;;;;;;8.03;2.95;;;;;;;23.73;48.38;100810.73;1700077;82;25208;-87
2021/06/16 10:35:35;;;;;;;7.90;3.17;;;;;;;23.69;48.10;100805.05;1686474;84;25467;-86
2021/06/16 10:38:18;;;;;;;11.55;3.40;;;;;;;23.66;47.78;100804.19;1697311;82;25682;-88
2021/06/16 10:40:51;;;;;;;5.33;3.10;;;;;;;23.62;48.25;100809.71;1698616;83;25688;-88
2021/06/16 10:43:19;;;;;;;8.30;2.90;;;;;;;23.68;47.68;100812.75;1696139;83;25662;-86
2021/06/16 10:45:52;;;;;;;9.13;3.62;;;;;;;23.65;47.78;100808.73;1701561;84;25156;-87
2021/06/16 10:48:18;;;;;;;9.08;3.45;;;;;;;23.62;48.14;100807.04;1701169;84;25400;-86
2021/06/16 10:50:51;;;;;;;8.85;3.02;;;;;;;23.59;47.65;100807.52;1701540;84;25162;-88
2021/06/16 10:53:20;;;;;;;7.85;3.20;;;;;;;23.57;47.64;100798.44;1701278;84;25587;-87
2021/06/16 10:55:58;;;;;;;11.33;3.45;;;;;;;23.58;47.68;100803.25;1701162;84;25678;-86
2021/06/16 10:58:27;;;;;;;13.13;3.85;;;;;;;23.61;48.45;100800.09;1701706;84;25394;-86
2021/06/16 11:01:19;;;;;;;8.03;3.40;;;;;;;23.80;48.49;100802.05;1700865;83;25758;-87
2021/06/16 11:03:57;;;;;;;8.28;3.40;;;;;;;23.81;47.74;100804.46;1699990;84;25552;-87
2021/06/16 11:06:36;;;;;;;8.30;3.50;;;;;;;23.83;48.25;100799.70;1700323;83;25570;-87
2021/06/16 11:09:10;;;;;;;6.60;3.47;;;;;;;24.02;48.46;100804.27;1701652;84;25116;-86
2021/06/16 11:12:04;;;;;;;5.28;3.00;;;;;;;24.10;48.95;100799.85;1700963;84;25636;-86
2021/06/16 11:14:43;;;;;;;7.50;3.50;;;;;;;24.30;48.42;100794.53;1701849;83;25348;-84
2021/06/16 11:17:11;;;;;;;8.08;4.12;;;;;;;24.34;47.93;100797.00;1701646;83;25393;-85
2021/06/16 11:19:41;;;;;;;6.62;3.47;;;;;;;24.26;47.11;100794.22;1701452;84;25754;-86
2021/06/16 11:22:18;;;;;;;7.72;3.90;;;;;;;24.22;47.38;100797.61;1701455;84;25196;-85
2021/06/16 11:25:29;;;;;;;8.48;3.92;;;;;;;24.15;47.59;100791.12;1700973;83;25410;-85
2021/06/16 11:28:07;;;;;;;8.13;3.70;;;;;;;24.13;47.96;100793.22;1701247;84;25679;-86
2021/06/16 11:30:50;;;;;;;8.18;3.85;;;;;;;24.17;47.66;100801.55;1701468;84;25170;-86